createdAt,value
2018-08-12T00:01:52.082Z,95.90
2018-08-12T00:04:23.930Z,95.90
2018-08-12T00:06:55.287Z,96.00
2018-08-12T00:09:26.727Z,96.30
2018-08-12T00:11:57.867Z,96.20
2018-08-12T00:14:29.213Z,96.70
2018-08-12T00:17:00.468Z,96.80
2018-08-12T00:19:31.689Z,97.00
2018-08-12T00:22:03.269Z,97.60
2018-08-12T00:24:34.531Z,97.50
2018-08-12T00:27:05.900Z,97.00
2018-08-12T00:29:37.291Z,97.00
2018-08-12T00:32:08.501Z,97.90
2018-08-12T00:34:40.535Z,97.90
2018-08-12T00:37:12.096Z,97.90
2018-08-12T00:39:43.301Z,98.10
2018-08-12T00:42:14.774Z,98.80
2018-08-12T00:44:46.354Z,99.40
2018-08-12T00:47:17.617Z,99.40
2018-08-12T00:49:49.040Z,99.00
2018-08-12T00:52:20.952Z,99.60
2018-08-12T00:54:52.543Z,99.70
2018-08-12T00:57:24.409Z,99.20
2018-08-12T00:59:56.000Z,99.30
2018-08-12T01:02:28.423Z,99.70
2018-08-12T01:04:59.746Z,99.90
2018-08-12T01:07:31.134Z,99.90
2018-08-12T01:10:02.476Z,99.90
2018-08-12T01:12:33.868Z,99.90
2018-08-12T01:15:06.582Z,99.90
2018-08-12T01:17:38.161Z,99.90
2018-08-12T01:20:11.271Z,99.40
2018-08-12T01:22:42.782Z,99.90
2018-08-12T01:25:14.480Z,99.90
2018-08-12T01:27:45.776Z,99.90
2018-08-12T01:30:19.411Z,99.90
2018-08-12T01:32:50.804Z,99.90
2018-08-12T01:35:22.185Z,99.90
2018-08-12T01:37:53.255Z,99.90
2018-08-12T01:40:24.543Z,99.90
2018-08-12T01:42:55.670Z,99.90
2018-08-12T01:45:26.857Z,99.90
2018-08-12T01:47:58.110Z,99.90
2018-08-12T01:50:29.412Z,99.90
2018-08-12T01:53:00.881Z,99.90
2018-08-12T01:55:32.178Z,99.90
2018-08-12T01:58:03.635Z,99.90
2018-08-12T02:00:34.961Z,99.90
2018-08-12T02:03:06.798Z,99.90
2018-08-12T02:05:38.791Z,99.90
2018-08-12T02:08:10.714Z,99.90
2018-08-12T02:10:42.381Z,99.90
2018-08-12T02:13:13.640Z,99.90
2018-08-12T02:15:44.816Z,99.90
2018-08-12T02:18:15.889Z,99.90
2018-08-12T02:20:47.273Z,99.90
2018-08-12T02:23:18.643Z,99.90
2018-08-12T02:25:50.052Z,99.90
2018-08-12T02:28:21.403Z,99.90
2018-08-12T02:30:52.818Z,99.90
2018-08-12T02:33:24.223Z,99.90
2018-08-12T02:35:55.758Z,99.90
2018-08-12T02:38:26.961Z,99.90
2018-08-12T02:40:58.204Z,99.90
2018-08-12T02:43:29.556Z,99.90
2018-08-12T02:46:00.964Z,99.90
2018-08-12T02:48:32.381Z,99.90
2018-08-12T02:51:03.853Z,99.90
2018-08-12T02:53:35.389Z,99.90
2018-08-12T02:56:06.588Z,99.90
2018-08-12T02:58:37.694Z,99.90
2018-08-12T03:01:09.052Z,99.90
2018-08-12T03:03:40.698Z,99.90
2018-08-12T03:06:12.102Z,99.90
2018-08-12T03:08:43.434Z,99.90
2018-08-12T03:11:14.795Z,99.90
2018-08-12T03:13:46.195Z,99.90
2018-08-12T03:16:17.650Z,99.90
2018-08-12T03:18:48.950Z,99.90
2018-08-12T03:21:20.653Z,99.90
2018-08-12T03:23:51.927Z,99.90
2018-08-12T03:26:23.580Z,99.90
2018-08-12T03:28:54.716Z,99.90
2018-08-12T03:31:26.159Z,99.90
2018-08-12T03:33:57.764Z,99.90
2018-08-12T03:36:29.412Z,99.90
2018-08-12T03:39:00.514Z,99.90
2018-08-12T03:41:31.662Z,99.90
2018-08-12T03:44:03.363Z,99.90
2018-08-12T03:46:34.511Z,99.90
2018-08-12T03:49:05.813Z,99.90
2018-08-12T03:51:37.064Z,99.90
2018-08-12T03:54:08.343Z,99.90
2018-08-12T03:56:39.767Z,99.90
2018-08-12T03:59:11.224Z,99.90
2018-08-12T04:01:42.561Z,99.90
2018-08-12T04:04:13.812Z,99.90
2018-08-12T04:06:45.187Z,99.90
2018-08-12T04:09:16.533Z,99.90
2018-08-12T04:11:47.852Z,99.90
2018-08-12T04:14:18.958Z,99.90
2018-08-12T04:17:04.541Z,99.90
2018-08-12T04:19:35.667Z,99.90
2018-08-12T04:22:07.193Z,99.90
2018-08-12T04:24:38.756Z,99.90
2018-08-12T04:27:10.178Z,99.90
2018-08-12T04:29:41.512Z,99.90
2018-08-12T04:32:12.786Z,99.90
2018-08-12T04:34:43.967Z,99.90
2018-08-12T04:37:15.308Z,99.90
2018-08-12T04:39:46.616Z,99.90
2018-08-12T04:42:17.779Z,99.90
2018-08-12T04:44:48.991Z,99.90
2018-08-12T04:47:20.320Z,99.90
2018-08-12T04:49:51.536Z,99.90
2018-08-12T04:52:22.762Z,99.90
2018-08-12T04:54:53.991Z,99.90
2018-08-12T04:57:25.595Z,99.90
2018-08-12T04:59:56.736Z,99.90
2018-08-12T05:02:28.137Z,99.90
2018-08-12T05:04:59.319Z,99.90
2018-08-12T05:07:30.475Z,99.90
2018-08-12T05:10:02.408Z,99.90
2018-08-12T05:12:33.799Z,99.90
2018-08-12T05:15:06.151Z,99.90
2018-08-12T05:17:37.537Z,99.90
2018-08-12T05:20:09.314Z,99.90
2018-08-12T05:22:40.990Z,99.90
2018-08-12T05:25:12.166Z,99.90
2018-08-12T05:27:43.411Z,99.90
2018-08-12T05:30:15.478Z,99.90
2018-08-12T05:32:46.501Z,99.90
2018-08-12T05:35:18.169Z,99.90
2018-08-12T05:37:49.337Z,99.90
2018-08-12T05:40:21.022Z,99.90
2018-08-12T05:42:52.512Z,99.90
2018-08-12T05:45:23.859Z,99.90
2018-08-12T05:47:55.251Z,99.90
2018-08-12T05:50:26.680Z,99.90
2018-08-12T05:52:57.852Z,99.90
2018-08-12T05:55:29.131Z,99.90
2018-08-12T05:58:00.408Z,99.90
2018-08-12T06:00:31.854Z,99.90
2018-08-12T06:03:03.316Z,99.90
2018-08-12T06:05:34.590Z,99.90
2018-08-12T06:08:05.964Z,99.90
2018-08-12T06:10:37.222Z,99.90
2018-08-12T06:13:08.786Z,99.90
2018-08-12T06:15:40.035Z,99.90
2018-08-12T06:18:11.181Z,99.90
2018-08-12T06:20:42.395Z,99.90
2018-08-12T06:23:13.704Z,99.90
2018-08-12T06:25:44.888Z,99.90
2018-08-12T06:28:15.949Z,99.90
2018-08-12T06:30:47.252Z,99.90
2018-08-12T06:33:19.641Z,99.90
2018-08-12T06:35:51.016Z,99.90
2018-08-12T06:38:22.457Z,99.90
2018-08-12T06:40:53.868Z,99.90
2018-08-12T06:43:25.282Z,99.90
2018-08-12T06:45:57.199Z,99.90
2018-08-12T06:48:28.583Z,99.90
2018-08-12T06:51:00.046Z,99.90
2018-08-12T06:53:31.326Z,99.90
2018-08-12T06:56:02.788Z,99.90
2018-08-12T06:58:34.083Z,99.90
2018-08-12T07:01:06.130Z,99.90
2018-08-12T07:03:37.740Z,99.90
2018-08-12T07:06:09.325Z,99.90
2018-08-12T07:08:40.705Z,99.90
2018-08-12T07:11:11.858Z,99.90
2018-08-12T07:13:43.049Z,99.90
2018-08-12T07:16:15.213Z,99.90
2018-08-12T07:18:46.405Z,99.90
2018-08-12T07:21:17.592Z,99.90
2018-08-12T07:23:49.249Z,99.90
2018-08-12T07:26:20.516Z,99.90
2018-08-12T07:28:52.236Z,99.90
2018-08-12T07:31:23.519Z,99.90
2018-08-12T07:33:55.182Z,99.90
2018-08-12T07:36:26.467Z,99.90
2018-08-12T07:38:57.978Z,99.90
2018-08-12T07:41:29.339Z,99.90
2018-08-12T07:44:00.668Z,99.80
2018-08-12T07:46:32.435Z,99.90
2018-08-12T07:49:04.097Z,99.00
2018-08-12T07:51:35.312Z,98.20
2018-08-12T07:54:06.428Z,97.90
2018-08-12T07:56:37.809Z,97.00
2018-08-12T07:59:09.204Z,95.80
2018-08-12T08:01:40.533Z,95.40
2018-08-12T08:04:12.942Z,95.00
2018-08-12T08:06:44.356Z,94.10
2018-08-12T08:09:15.994Z,93.40
2018-08-12T08:11:47.135Z,92.20
2018-08-12T08:14:19.681Z,91.30
2018-08-12T08:16:50.900Z,90.50
2018-08-12T08:19:22.608Z,89.80
2018-08-12T08:21:53.751Z,90.30
2018-08-12T08:24:25.114Z,87.60
2018-08-12T08:26:56.628Z,87.00
2018-08-12T08:29:28.075Z,88.00
2018-08-12T08:31:59.404Z,85.30
2018-08-12T08:39:21.423Z,81.10
2018-08-12T08:41:52.612Z,77.20
2018-08-12T08:44:23.916Z,75.80
2018-08-12T08:46:55.428Z,76.50
2018-08-12T08:49:27.007Z,75.00
2018-08-12T08:51:58.375Z,74.20
2018-08-12T08:54:29.820Z,74.30
2018-08-12T08:57:00.913Z,73.00
2018-08-12T08:59:32.423Z,72.40
2018-08-12T09:02:03.664Z,71.60
2018-08-12T09:04:35.079Z,70.80
2018-08-12T09:07:07.115Z,69.80
2018-08-12T09:09:38.427Z,69.30
2018-08-12T09:12:10.769Z,68.60
2018-08-12T09:14:42.197Z,67.30
2018-08-12T09:17:13.443Z,66.30
2018-08-12T09:19:44.863Z,65.50
2018-08-12T09:22:16.116Z,65.60
2018-08-12T09:24:47.157Z,65.70
2018-08-12T09:27:18.339Z,65.80
2018-08-12T09:29:49.790Z,64.80
2018-08-12T09:32:20.972Z,63.80
2018-08-12T09:34:52.121Z,62.60
2018-08-12T09:37:23.823Z,61.90
2018-08-12T09:39:55.844Z,61.70
2018-08-12T09:42:27.623Z,61.90
2018-08-12T09:44:59.151Z,61.40
2018-08-12T09:47:30.484Z,61.50
2018-08-12T09:50:02.121Z,61.40
2018-08-12T09:52:33.482Z,60.60
2018-08-12T09:55:05.430Z,60.10
2018-08-12T09:57:36.944Z,59.90
2018-08-12T10:00:19.923Z,59.00
2018-08-12T10:02:52.641Z,59.50
2018-08-12T10:05:24.208Z,58.90
2018-08-12T10:07:55.631Z,58.20
2018-08-12T10:10:26.783Z,57.80
2018-08-12T10:14:00.826Z,57.70
2018-08-12T10:16:32.855Z,57.50
2018-08-12T10:19:04.443Z,56.70
2018-08-12T10:21:36.280Z,56.50
2018-08-12T10:24:08.737Z,56.90
2018-08-12T10:26:39.961Z,56.60
2018-08-12T10:29:11.148Z,56.70
2018-08-12T10:31:42.362Z,56.70
2018-08-12T10:34:13.947Z,56.40
2018-08-12T10:36:45.505Z,56.70
2018-08-12T10:39:16.707Z,56.30
2018-08-12T10:41:47.892Z,55.80
2018-08-12T10:44:19.565Z,55.00
2018-08-12T10:46:50.642Z,54.60
2018-08-12T10:49:21.944Z,54.70
2018-08-12T10:51:53.384Z,54.80
2018-08-12T10:54:25.008Z,54.50
2018-08-12T10:56:56.446Z,54.10
2018-08-12T10:59:27.939Z,53.60
2018-08-12T11:01:59.507Z,52.90
2018-08-12T11:04:31.045Z,53.70
2018-08-12T11:07:02.435Z,52.80
2018-08-12T11:09:33.851Z,53.20
2018-08-12T11:12:05.584Z,53.60
2018-08-12T11:14:37.338Z,53.10
2018-08-12T11:17:08.927Z,52.40
2018-08-12T11:19:40.361Z,52.60
2018-08-12T11:22:12.175Z,52.50
2018-08-12T11:24:43.440Z,52.20
2018-08-12T11:27:14.619Z,51.70
2018-08-12T11:29:45.804Z,51.20
2018-08-12T11:32:16.975Z,51.60
2018-08-12T11:34:48.199Z,51.50
2018-08-12T11:37:19.434Z,51.10
2018-08-12T11:39:50.754Z,51.30
2018-08-12T11:42:22.743Z,51.50
2018-08-12T11:44:54.000Z,50.70
2018-08-12T11:47:25.176Z,50.50
2018-08-12T11:49:56.367Z,50.80
2018-08-12T11:52:28.366Z,50.30
2018-08-12T11:54:59.698Z,49.80
2018-08-12T11:57:31.000Z,50.10
2018-08-12T12:00:02.737Z,49.90
2018-08-12T12:02:34.182Z,50.50
2018-08-12T12:05:06.209Z,50.00
2018-08-12T12:07:38.664Z,49.70
2018-08-12T12:10:13.395Z,49.50
2018-08-12T12:12:46.170Z,49.20
2018-08-12T12:15:17.854Z,49.30
2018-08-12T12:17:49.583Z,49.60
2018-08-12T12:20:21.131Z,49.20
2018-08-12T12:22:52.540Z,48.70
2018-08-12T12:25:23.631Z,49.60
2018-08-12T12:27:55.528Z,48.50
2018-08-12T12:30:27.067Z,48.00
2018-08-12T12:32:58.263Z,48.40
2018-08-12T12:35:29.879Z,47.90
2018-08-12T12:38:01.217Z,47.80
2018-08-12T12:40:32.373Z,47.20
2018-08-12T12:43:03.929Z,47.70
2018-08-12T12:45:35.370Z,47.80
2018-08-12T12:48:07.547Z,48.10
2018-08-12T12:50:38.927Z,48.90
2018-08-12T12:53:10.292Z,48.10
2018-08-12T12:55:41.487Z,46.90
2018-08-12T12:58:12.736Z,47.60
2018-08-12T13:00:43.820Z,47.40
2018-08-12T13:03:15.063Z,46.50
2018-08-12T13:05:46.657Z,46.50
2018-08-12T13:08:18.015Z,47.10
2018-08-12T13:10:49.479Z,46.60
2018-08-12T13:13:21.040Z,46.20
2018-08-12T13:15:52.166Z,46.40
2018-08-12T13:18:23.634Z,47.70
2018-08-12T13:20:54.792Z,47.30
2018-08-12T13:23:25.964Z,47.40
2018-08-12T13:25:57.344Z,47.00
2018-08-12T13:28:28.589Z,46.40
2018-08-12T13:30:59.996Z,46.40
2018-08-12T13:33:31.437Z,46.30
2018-08-12T13:36:02.581Z,46.50
2018-08-12T13:38:33.714Z,47.20
2018-08-12T13:41:05.331Z,47.10
2018-08-12T13:43:36.589Z,46.80
2018-08-12T13:46:08.449Z,45.80
2018-08-12T13:48:39.819Z,46.40
2018-08-12T13:51:11.466Z,45.20
2018-08-12T13:53:42.635Z,45.90
2018-08-12T13:56:13.855Z,45.70
2018-08-12T13:58:45.405Z,45.70
2018-08-12T14:01:16.591Z,45.10
2018-08-12T14:03:47.723Z,44.70
2018-08-12T14:06:19.189Z,44.40
2018-08-12T14:08:50.339Z,46.30
2018-08-12T14:11:21.787Z,46.50
2018-08-12T14:13:52.992Z,46.40
2018-08-12T14:16:24.124Z,46.90
2018-08-12T14:18:55.361Z,47.00
2018-08-12T14:21:26.803Z,46.30
2018-08-12T14:23:57.952Z,46.40
2018-08-12T14:26:29.251Z,46.20
2018-08-12T14:29:00.717Z,46.40
2018-08-12T14:31:31.874Z,46.80
2018-08-12T14:34:03.068Z,46.70
2018-08-12T14:36:34.495Z,47.10
2018-08-12T14:39:08.991Z,47.00
2018-08-12T14:41:40.622Z,47.60
2018-08-12T14:44:12.177Z,48.10
2018-08-12T14:46:43.776Z,48.40
2018-08-12T14:49:14.922Z,48.90
2018-08-12T14:51:46.566Z,49.10
2018-08-12T14:54:17.707Z,48.70
2018-08-12T14:56:49.056Z,48.60
2018-08-12T14:59:20.423Z,49.10
2018-08-12T15:01:51.665Z,48.70
2018-08-12T15:04:22.864Z,49.40
2018-08-12T15:06:54.147Z,48.60
2018-08-12T15:09:25.278Z,49.70
2018-08-12T15:11:56.552Z,49.80
2018-08-12T15:14:27.603Z,49.80
2018-08-12T15:16:58.982Z,50.20
2018-08-12T15:19:31.811Z,50.90
2018-08-12T15:22:03.722Z,50.50
2018-08-12T15:24:35.035Z,51.20
2018-08-12T15:27:06.611Z,50.70
2018-08-12T15:29:37.758Z,51.00
2018-08-12T15:32:08.918Z,51.00
2018-08-12T15:34:40.536Z,51.30
2018-08-12T15:37:11.780Z,52.20
2018-08-12T15:39:43.025Z,51.40
2018-08-12T15:42:14.691Z,51.60
2018-08-12T15:44:46.315Z,51.50
2018-08-12T15:47:17.703Z,51.10
2018-08-12T15:49:48.998Z,51.60
2018-08-12T15:52:20.311Z,52.40
2018-08-12T15:54:51.392Z,52.60
2018-08-12T15:57:22.645Z,52.20
2018-08-12T15:59:53.927Z,52.40
2018-08-12T16:02:25.167Z,52.50
2018-08-12T16:04:56.419Z,52.90
2018-08-12T16:07:27.969Z,52.90
2018-08-12T16:09:59.725Z,53.30
2018-08-12T16:12:31.085Z,53.80
2018-08-12T16:15:02.501Z,53.90
2018-08-12T16:17:34.245Z,54.80
2018-08-12T16:20:06.866Z,53.50
2018-08-12T16:22:38.241Z,53.40
2018-08-12T16:25:16.846Z,53.60
2018-08-12T16:27:48.800Z,53.90
2018-08-12T16:30:20.881Z,54.70
2018-08-12T16:32:52.512Z,54.70
2018-08-12T16:35:23.721Z,54.50
2018-08-12T16:37:54.827Z,54.60
2018-08-12T16:40:26.009Z,54.60
2018-08-12T16:42:57.455Z,54.60
2018-08-12T16:45:29.051Z,54.90
2018-08-12T16:48:00.834Z,55.40
2018-08-12T16:50:32.193Z,55.70
2018-08-12T16:53:03.428Z,56.40
2018-08-12T16:55:34.809Z,57.00
2018-08-12T16:58:06.417Z,57.30
2018-08-12T17:00:37.932Z,57.80
2018-08-12T17:03:09.810Z,58.10
2018-08-12T17:05:41.109Z,58.70
2018-08-12T17:08:12.319Z,58.60
2018-08-12T17:10:43.452Z,59.30
2018-08-12T17:13:14.932Z,59.80
2018-08-12T17:15:46.479Z,60.10
2018-08-12T17:18:17.954Z,60.80
2018-08-12T17:20:49.276Z,61.50
2018-08-12T17:23:20.543Z,62.10
2018-08-12T17:25:54.126Z,62.70
2018-08-12T17:28:25.632Z,63.20
2018-08-12T17:30:57.088Z,63.80
2018-08-12T17:33:29.270Z,64.50
2018-08-12T17:36:00.708Z,65.30
2018-08-12T17:38:33.207Z,65.80
2018-08-12T17:41:06.951Z,66.60
2018-08-12T17:43:40.227Z,67.10
2018-08-12T17:46:13.705Z,67.90
2018-08-12T17:48:45.548Z,70.40
2018-08-12T17:51:16.688Z,72.00
2018-08-12T17:53:49.949Z,72.40
2018-08-12T17:56:23.174Z,71.40
2018-08-12T17:58:54.566Z,73.40
2018-08-12T18:01:25.806Z,77.10
2018-08-12T18:03:57.587Z,80.00
2018-08-12T18:06:29.944Z,85.10
2018-08-12T18:09:01.587Z,91.90
2018-08-12T18:11:32.799Z,99.10
2018-08-12T18:14:04.152Z,99.90
2018-08-12T18:16:35.916Z,99.90
2018-08-12T18:19:08.253Z,99.90
2018-08-12T18:21:39.495Z,99.90
2018-08-12T18:24:10.642Z,99.90
2018-08-12T18:26:42.036Z,99.90
2018-08-12T18:29:13.550Z,99.90
2018-08-12T18:31:44.864Z,99.90
2018-08-12T18:34:16.006Z,99.90
2018-08-12T18:36:50.087Z,99.90
2018-08-12T18:39:23.177Z,99.90
2018-08-12T18:41:54.353Z,99.90
2018-08-12T18:44:26.117Z,99.90
2018-08-12T18:46:57.260Z,99.90
2018-08-12T18:49:29.266Z,99.90
2018-08-12T18:52:00.601Z,99.90
2018-08-12T18:54:31.922Z,99.90
2018-08-12T18:57:03.214Z,99.90
2018-08-12T18:59:36.552Z,99.90
2018-08-12T19:02:09.832Z,99.90
2018-08-12T19:04:41.179Z,99.90
2018-08-12T19:07:13.208Z,99.90
2018-08-12T19:09:44.484Z,99.90
2018-08-12T19:12:15.843Z,99.90
2018-08-12T19:14:47.029Z,99.90
2018-08-12T19:17:19.072Z,99.90
2018-08-12T19:19:51.100Z,99.90
2018-08-12T19:22:22.245Z,99.90
2018-08-12T19:24:54.307Z,99.90
2018-08-12T19:27:25.612Z,99.90
2018-08-12T19:29:56.927Z,99.90
2018-08-12T19:32:28.415Z,99.90
2018-08-12T19:34:59.601Z,99.90
2018-08-12T19:37:33.021Z,99.90
2018-08-12T19:40:04.628Z,99.90
2018-08-12T19:42:35.346Z,99.90
2018-08-12T19:45:07.641Z,99.90
2018-08-12T19:47:38.346Z,99.90
2018-08-12T19:50:10.619Z,99.90
2018-08-12T19:52:41.351Z,99.90
2018-08-12T19:55:13.514Z,99.90
2018-08-12T19:57:44.813Z,99.90
2018-08-12T20:00:16.505Z,99.90
2018-08-12T20:02:47.766Z,99.90
2018-08-12T20:05:18.498Z,99.90
2018-08-12T20:07:49.265Z,99.90
2018-08-12T20:10:19.942Z,99.90
2018-08-12T20:12:50.626Z,99.90
2018-08-12T20:15:21.343Z,99.90
2018-08-12T20:17:52.060Z,99.90
2018-08-12T20:20:22.927Z,99.90
2018-08-12T20:22:53.665Z,99.90
2018-08-12T20:25:24.340Z,99.90
2018-08-12T20:27:55.166Z,99.90
2018-08-12T20:30:25.841Z,99.90
2018-08-12T20:32:56.583Z,99.90
2018-08-12T20:35:27.270Z,99.90
2018-08-12T20:37:57.967Z,99.90
2018-08-12T20:40:28.686Z,99.90
2018-08-12T20:42:59.386Z,99.90
2018-08-12T20:45:30.263Z,99.90
2018-08-12T20:48:00.923Z,99.90
2018-08-12T20:50:33.219Z,99.90
2018-08-12T20:53:04.046Z,99.90
2018-08-12T20:55:34.796Z,99.90
2018-08-12T20:58:06.107Z,99.90
2018-08-12T21:00:36.838Z,99.90
2018-08-12T21:03:07.557Z,99.90
2018-08-12T21:05:38.228Z,99.90
2018-08-12T21:08:08.972Z,99.90
2018-08-12T21:10:39.727Z,99.90
2018-08-12T21:13:10.594Z,99.90
2018-08-12T21:15:41.313Z,99.90
2018-08-12T21:18:12.105Z,99.90
2018-08-12T21:20:42.912Z,99.90
2018-08-12T21:23:13.621Z,99.90
2018-08-12T21:25:44.872Z,99.90
2018-08-12T21:28:16.122Z,99.90
2018-08-12T21:30:47.721Z,99.90
2018-08-12T21:33:19.016Z,99.90
2018-08-12T21:35:50.258Z,99.90
2018-08-12T21:38:21.616Z,99.90
2018-08-12T21:40:52.875Z,99.90
2018-08-12T21:43:24.056Z,99.90
2018-08-12T21:45:55.251Z,99.90
2018-08-12T21:48:26.833Z,99.90
2018-08-12T21:50:58.117Z,99.90
2018-08-12T21:53:29.804Z,99.90
2018-08-12T21:56:00.923Z,99.90
2018-08-12T21:58:32.160Z,99.90
2018-08-12T22:01:03.908Z,99.90
2018-08-12T22:03:35.455Z,99.90
2018-08-12T22:06:07.128Z,99.90
2018-08-12T22:08:38.383Z,99.90
2018-08-12T22:11:09.738Z,99.90
2018-08-12T22:13:41.120Z,99.90
2018-08-12T22:16:12.898Z,99.90
2018-08-12T22:18:44.315Z,99.90
2018-08-12T22:21:15.523Z,99.90
2018-08-12T22:23:47.236Z,99.90
2018-08-12T22:27:21.108Z,99.90
2018-08-12T22:29:52.443Z,99.90
2018-08-12T22:32:23.996Z,99.90
2018-08-12T22:34:55.167Z,99.90
2018-08-12T22:37:25.826Z,99.90
2018-08-12T22:39:57.263Z,99.90
2018-08-12T22:42:28.479Z,99.90
2018-08-12T22:44:59.882Z,99.90
2018-08-12T22:47:30.980Z,99.90
2018-08-12T22:50:02.220Z,99.90
2018-08-12T22:52:32.987Z,99.90
2018-08-12T22:55:03.745Z,99.90
2018-08-12T22:57:35.256Z,99.90
2018-08-12T23:00:09.774Z,99.90
2018-08-12T23:02:40.738Z,99.90
2018-08-12T23:05:11.632Z,99.90
2018-08-12T23:07:42.799Z,99.90
2018-08-12T23:10:13.566Z,99.90
2018-08-12T23:12:44.234Z,99.90
2018-08-12T23:15:31.408Z,99.90
2018-08-12T23:18:02.092Z,99.90
2018-08-12T23:20:32.839Z,99.90
2018-08-12T23:23:04.637Z,99.90
2018-08-12T23:25:36.202Z,99.90
2018-08-12T23:28:07.458Z,99.90
2018-08-12T23:30:39.026Z,99.90
2018-08-12T23:33:10.319Z,99.90
2018-08-12T23:35:41.527Z,99.90
2018-08-12T23:38:13.985Z,99.90
2018-08-12T23:40:45.102Z,99.90
2018-08-12T23:43:16.276Z,99.90
2018-08-12T23:45:47.848Z,99.90
2018-08-12T23:48:19.255Z,99.90
2018-08-12T23:50:49.964Z,99.90
2018-08-12T23:53:20.860Z,99.90
2018-08-12T23:55:51.681Z,99.90
2018-08-12T23:58:22.343Z,99.90
